createdAt,value
2022-10-28T00:00:51.770Z,3
2022-10-28T00:05:34.084Z,3
2022-10-28T00:10:16.392Z,7
2022-10-28T00:14:58.606Z,4
2022-10-28T00:24:23.232Z,4
2022-10-28T00:29:04.539Z,4
2022-10-28T00:33:46.754Z,4
2022-10-28T00:38:28.061Z,4
2022-10-28T00:43:10.372Z,4
2022-10-28T00:47:52.685Z,4
2022-10-28T00:52:34.897Z,4
2022-10-28T00:57:17.207Z,16
2022-10-28T01:01:59.585Z,15
2022-10-28T01:11:24.043Z,15
2022-10-28T01:16:06.414Z,15
2022-10-28T01:20:48.562Z,16
2022-10-28T01:25:30.883Z,16
2022-10-28T01:30:13.185Z,16
2022-10-28T01:34:55.502Z,12
2022-10-28T01:39:36.708Z,12
2022-10-28T01:49:01.334Z,15
2022-10-28T01:53:42.647Z,15
2022-10-28T01:58:23.955Z,15
2022-10-28T02:03:06.167Z,15
2022-10-28T02:07:48.474Z,15
2022-10-28T02:12:30.806Z,15
2022-10-28T02:17:12.999Z,15
2022-10-28T02:21:55.309Z,15
2022-10-28T02:26:37.624Z,15
2022-10-28T02:31:19.844Z,15
2022-10-28T02:36:02.145Z,15
2022-10-28T02:45:26.671Z,15
2022-10-28T02:50:08.983Z,15
2022-10-28T02:54:51.304Z,12
2022-10-28T02:59:32.606Z,12
2022-10-28T03:04:14.817Z,12
2022-10-28T03:08:57.130Z,12
2022-10-28T03:13:39.458Z,12
2022-10-28T03:23:04.008Z,12
2022-10-28T03:32:28.490Z,12
2022-10-28T03:37:10.800Z,16
2022-10-28T03:41:53.110Z,16
2022-10-28T03:46:35.327Z,16
2022-10-28T03:51:17.640Z,12
2022-10-28T03:55:59.947Z,12
2022-10-28T04:00:41.275Z,12
2022-10-28T04:05:23.532Z,12
2022-10-28T04:10:05.783Z,12
2022-10-28T04:19:30.314Z,12
2022-10-28T04:28:54.930Z,12
2022-10-28T04:33:37.142Z,12
2022-10-28T04:38:19.456Z,12
2022-10-28T04:43:01.763Z,12
2022-10-28T04:47:44.086Z,12
2022-10-28T04:57:08.600Z,12
2022-10-28T05:01:49.911Z,12
2022-10-28T05:06:32.124Z,12
2022-10-28T05:15:56.746Z,15
2022-10-28T05:20:39.005Z,15
2022-10-28T05:25:21.271Z,20
2022-10-28T05:30:03.579Z,23
2022-10-28T05:34:45.813Z,33
2022-10-28T05:39:28.101Z,69
2022-10-28T05:44:10.436Z,99
2022-10-28T05:48:52.727Z,144
2022-10-28T05:53:34.987Z,269
2022-10-28T05:58:17.251Z,407
2022-10-28T06:02:59.562Z,554
2022-10-28T06:07:40.848Z,658
2022-10-28T06:12:21.548Z,818
2022-10-28T06:17:03.931Z,1207
2022-10-28T06:21:46.126Z,1773
2022-10-28T06:26:28.447Z,2410
2022-10-28T06:31:10.714Z,2675
2022-10-28T06:40:34.245Z,3021
2022-10-28T06:45:15.567Z,3350
2022-10-28T06:49:59.388Z,3214
2022-10-28T06:54:40.705Z,2584
2022-10-28T06:59:23.014Z,1935
2022-10-28T07:04:04.331Z,1852
2022-10-28T07:08:46.547Z,2048
2022-10-28T07:13:28.859Z,1652
2022-10-28T07:18:11.242Z,1604
2022-10-28T07:22:53.394Z,2082
2022-10-28T07:27:35.716Z,3300
2022-10-28T07:32:18.021Z,4440
2022-10-28T07:37:00.235Z,6032
2022-10-28T07:41:42.555Z,5239
2022-10-28T07:46:24.918Z,2819
2022-10-28T07:51:06.199Z,4147
2022-10-28T07:55:47.386Z,5107
2022-10-28T08:00:28.681Z,5829
2022-10-28T08:05:10.988Z,6806
2022-10-28T08:09:53.310Z,7256
2022-10-28T08:14:35.490Z,8537
2022-10-28T08:19:17.825Z,7759
2022-10-28T08:24:00.125Z,8363
2022-10-28T08:28:42.330Z,11272
2022-10-28T08:33:24.633Z,13799
2022-10-28T08:38:06.945Z,13424
2022-10-28T08:42:49.182Z,13665
2022-10-28T08:52:13.804Z,21714
2022-10-28T09:01:38.316Z,20860
2022-10-28T09:06:19.635Z,17311
2022-10-28T09:11:01.947Z,27559
2022-10-28T09:15:43.252Z,19631
2022-10-28T09:20:25.466Z,14906
2022-10-28T09:25:07.783Z,12831
2022-10-28T09:29:50.017Z,14651
2022-10-28T09:34:32.315Z,37458
2022-10-28T09:39:14.617Z,38554
2022-10-28T09:43:56.839Z,40319
2022-10-28T09:48:39.156Z,40004
2022-10-28T09:53:21.458Z,39757
2022-10-28T09:58:03.696Z,43261
2022-10-28T10:07:28.295Z,47445
2022-10-28T10:12:10.508Z,42840
2022-10-28T10:16:51.823Z,43112
2022-10-28T10:21:34.138Z,26975
2022-10-28T10:26:16.452Z,46234
2022-10-28T10:35:40.971Z,55425
2022-10-28T10:40:22.288Z,59165
2022-10-28T10:45:03.594Z,59722
2022-10-28T10:49:45.904Z,58278
2022-10-28T10:59:10.505Z,59418
2022-10-28T11:03:52.747Z,57890
2022-10-28T11:08:34.965Z,55820
2022-10-28T11:13:17.270Z,56072
2022-10-28T11:17:59.592Z,33772
2022-10-28T11:27:24.116Z,37398
2022-10-28T11:32:06.494Z,14403
2022-10-28T11:36:48.674Z,15620
2022-10-28T11:41:30.954Z,6948
2022-10-28T11:46:12.273Z,2143
2022-10-28T11:50:54.484Z,57971
2022-10-28T11:55:36.799Z,54660
2022-10-28T12:00:19.107Z,47006
2022-10-28T12:05:01.315Z,64501
2022-10-28T12:09:43.626Z,63259
2022-10-28T12:14:25.942Z,62262
2022-10-28T12:19:08.207Z,63286
2022-10-28T12:23:50.468Z,54499
2022-10-28T12:28:32.803Z,42668
2022-10-28T12:33:14.993Z,50346
2022-10-28T12:37:56.359Z,51932
2022-10-28T12:47:19.930Z,21696
2022-10-28T12:52:02.251Z,46175
2022-10-28T12:56:44.461Z,45413
2022-10-28T13:01:26.757Z,41509
2022-10-28T13:10:51.287Z,41515
2022-10-28T13:15:33.640Z,42253
2022-10-28T13:20:15.913Z,40436
2022-10-28T13:24:58.119Z,30806
2022-10-28T13:29:40.434Z,17407
2022-10-28T13:34:22.777Z,26526
2022-10-28T13:39:05.079Z,16897
2022-10-28T13:43:46.268Z,19244
2022-10-28T13:48:28.579Z,16905
2022-10-28T13:53:10.888Z,20628
2022-10-28T13:57:53.100Z,22044
2022-10-28T14:02:35.502Z,12383
2022-10-28T14:07:17.764Z,11012
2022-10-28T14:11:59.975Z,11509
2022-10-28T14:16:42.246Z,11192
2022-10-28T14:21:24.557Z,10234
2022-10-28T14:26:06.769Z,9778
2022-10-28T14:30:48.091Z,9717
2022-10-28T14:35:29.388Z,10337
2022-10-28T14:40:11.697Z,8898
2022-10-28T14:49:36.237Z,5399
2022-10-28T14:54:18.535Z,5086
2022-10-28T14:59:00.846Z,5038
2022-10-28T15:03:43.056Z,5506
2022-10-28T15:08:25.370Z,5197
2022-10-28T15:13:07.707Z,5011
2022-10-28T15:17:49.906Z,4572
2022-10-28T15:22:32.200Z,3458
2022-10-28T15:27:14.511Z,2785
2022-10-28T15:41:21.353Z,1484
2022-10-28T15:46:02.668Z,1152
2022-10-28T15:50:43.971Z,813
2022-10-28T15:55:26.178Z,506
2022-10-28T16:00:08.489Z,278
2022-10-28T16:04:50.806Z,171
2022-10-28T16:09:33.022Z,107
2022-10-28T16:14:15.340Z,58
2022-10-28T16:18:57.632Z,31
2022-10-28T16:23:39.845Z,15
2022-10-28T16:28:22.158Z,9
2022-10-28T16:33:04.465Z,9
2022-10-28T16:37:45.786Z,9
2022-10-28T16:42:27.165Z,4
2022-10-28T16:47:09.301Z,4
2022-10-28T16:51:51.616Z,4
2022-10-28T16:56:33.919Z,4
2022-10-28T17:01:16.129Z,4
2022-10-28T17:05:58.437Z,4
2022-10-28T17:10:40.755Z,4
2022-10-28T17:15:22.983Z,4
2022-10-28T17:24:47.606Z,4
2022-10-28T17:29:29.890Z,4
2022-10-28T17:34:12.120Z,4
2022-10-28T17:38:54.422Z,4
2022-10-28T17:43:35.633Z,4
2022-10-28T17:48:17.987Z,4
2022-10-28T17:57:42.476Z,4
2022-10-28T18:02:24.776Z,4
2022-10-28T18:07:06.084Z,4
2022-10-28T18:11:47.397Z,4
2022-10-28T18:16:29.725Z,4
2022-10-28T18:21:11.915Z,4
2022-10-28T18:25:54.228Z,4
2022-10-28T18:30:36.540Z,4
2022-10-28T18:35:18.751Z,4
2022-10-28T18:40:01.068Z,4
2022-10-28T18:44:43.570Z,4
2022-10-28T18:49:25.593Z,4
2022-10-28T18:54:07.898Z,4
2022-10-28T18:58:50.211Z,4
2022-10-28T19:03:31.545Z,4
2022-10-28T19:08:12.827Z,4
2022-10-28T19:12:55.047Z,4
2022-10-28T19:17:37.379Z,4
2022-10-28T19:22:19.660Z,4
2022-10-28T19:27:01.877Z,4
2022-10-28T19:31:44.183Z,4
2022-10-28T19:36:26.558Z,4
2022-10-28T19:41:08.705Z,4
2022-10-28T19:45:51.047Z,4
2022-10-28T19:50:33.332Z,4
2022-10-28T19:55:15.540Z,4
2022-10-28T19:59:57.853Z,4
2022-10-28T20:04:40.171Z,4
2022-10-28T20:09:21.546Z,4
2022-10-28T20:14:03.713Z,4
2022-10-28T20:23:28.307Z,4
2022-10-28T20:28:10.538Z,4
2022-10-28T20:32:52.829Z,4
2022-10-28T20:46:59.660Z,4
2022-10-28T20:51:41.984Z,4
2022-10-28T20:56:23.336Z,4
2022-10-28T21:01:04.500Z,4
2022-10-28T21:05:46.808Z,4
2022-10-28T21:10:29.191Z,4
2022-10-28T21:15:11.338Z,4
2022-10-28T21:19:53.651Z,4
2022-10-28T21:24:35.959Z,4
2022-10-28T21:29:18.176Z,4
2022-10-28T21:34:00.518Z,4
2022-10-28T21:38:42.800Z,4
2022-10-28T21:43:25.013Z,4
2022-10-28T21:48:07.331Z,9
2022-10-28T21:52:49.637Z,9
2022-10-28T21:57:30.946Z,9
2022-10-28T22:02:12.262Z,9
2022-10-28T22:06:54.471Z,9
2022-10-28T22:11:36.781Z,9
2022-10-28T22:16:19.104Z,9
2022-10-28T22:21:01.316Z,9
2022-10-28T22:25:43.619Z,9
2022-10-28T22:30:25.932Z,9
2022-10-28T22:35:08.208Z,9
2022-10-28T22:39:50.474Z,9
2022-10-28T22:44:32.768Z,9
2022-10-28T22:49:14.977Z,9
2022-10-28T22:53:57.288Z,4
2022-10-28T22:58:39.602Z,4
2022-10-28T23:03:20.912Z,4
2022-10-28T23:08:03.126Z,9
2022-10-28T23:12:45.447Z,9
2022-10-28T23:17:27.757Z,9
2022-10-28T23:22:09.960Z,9
2022-10-28T23:26:52.282Z,9
2022-10-28T23:31:34.582Z,9
2022-10-28T23:36:16.803Z,9
2022-10-28T23:40:59.106Z,9
2022-10-28T23:45:40.418Z,9
2022-10-28T23:50:22.733Z,9
2022-10-28T23:55:04.940Z,9
2022-10-28T23:59:47.249Z,9
